Time;durP1;ratioP1;P1;durP2;ratioP2;P2;SDS_P1;SDS_P2;PMS_P1;PMS_P2;Temp;Humidity;BMP_temperature;BMP_pressure;BME280_temperature;BME280_humidity;BME280_pressure;Samples;Min_cycle;Max_cycle;Signal;HPM_P1;HPM_P2
2022/05/28 00:01:43;;;;;;;2.47;1.45;;;;;;;;;;6172766;23;20175;-87
2022/05/28 00:04:48;;;;;;;3.47;1.33;;;;;;;;;;6177009;23;20259;-87
2022/05/28 00:07:53;;;;;;;1.80;1.30;;;;;;;;;;6190229;23;20199;-86
2022/05/28 00:11:00;;;;;;;4.10;1.38;;;;;;;;;;6172660;23;20518;-86
2022/05/28 00:14:07;;;;;;;3.92;1.55;;;;;;;;;;6172466;23;20524;-87
2022/05/28 00:17:12;;;;;;;3.67;1.58;;;;;;;;;;6176274;23;20171;-87
2022/05/28 00:20:18;;;;;;;1.70;1.50;;;;;;;;;;6174242;23;20171;-86
2022/05/28 00:23:23;;;;;;;1.45;1.17;;;;;;;;;;6175237;23;20187;-86
2022/05/28 00:26:29;;;;;;;2.40;1.50;;;;;;;;;;6176067;23;20195;-86
2022/05/28 00:29:36;;;;;;;3.08;1.20;;;;;;;;;;6178227;23;20175;-86
2022/05/28 00:32:44;;;;;;;2.65;1.50;;;;;;;;;;6173969;23;20179;-87
2022/05/28 00:35:49;;;;;;;2.67;1.30;;;;;;;;;;6191361;23;20223;-86
2022/05/28 00:38:54;;;;;;;3.17;1.50;;;;;;;;;;6174915;23;20171;-86
2022/05/28 00:42:01;;;;;;;3.60;1.30;;;;;;;;;;6174263;23;20187;-86
2022/05/28 00:45:10;;;;;;;1.60;1.20;;;;;;;;;;6186509;23;20184;-86
2022/05/28 00:48:19;;;;;;;4.53;1.40;;;;;;;;;;6179741;23;20266;-87
2022/05/28 00:51:25;;;;;;;3.22;1.45;;;;;;;;;;6191628;23;20179;-86
2022/05/28 00:54:34;;;;;;;3.00;1.50;;;;;;;;;;6192953;23;20184;-86
2022/05/28 00:57:40;;;;;;;1.73;1.45;;;;;;;;;;6192971;23;20172;-86
2022/05/28 01:00:47;;;;;;;6.82;1.63;;;;;;;;;;6193310;23;20147;-86
2022/05/28 01:04:02;;;;;;;1.92;1.20;;;;;;;;;;6195027;23;20156;-86
2022/05/28 01:07:11;;;;;;;3.47;1.70;;;;;;;;;;6194475;23;20305;-86
2022/05/28 01:10:22;;;;;;;3.60;1.40;;;;;;;;;;6195776;23;20176;-86
2022/05/28 01:13:30;;;;;;;3.80;1.90;;;;;;;;;;6192484;23;20212;-87
2022/05/28 01:16:39;;;;;;;2.83;2.03;;;;;;;;;;6173993;23;20191;-87
2022/05/28 01:19:49;;;;;;;4.05;1.70;;;;;;;;;;6175582;23;20222;-86
2022/05/28 01:23:10;;;;;;;3.33;1.80;;;;;;;;;;6175598;23;20171;-86
2022/05/28 01:26:19;;;;;;;2.92;1.80;;;;;;;;;;6174915;23;20171;-86
2022/05/28 01:29:28;;;;;;;2.42;1.60;;;;;;;;;;6174561;23;20460;-87
2022/05/28 01:32:35;;;;;;;5.22;2.00;;;;;;;;;;6174110;23;20235;-87
2022/05/28 01:35:40;;;;;;;2.92;1.85;;;;;;;;;;6173426;23;20167;-86
2022/05/28 01:38:46;;;;;;;2.28;1.65;;;;;;;;;;6173468;23;20510;-86
2022/05/28 01:41:53;;;;;;;3.17;2.10;;;;;;;;;;6173403;23;20247;-86
2022/05/28 01:45:00;;;;;;;2.70;1.90;;;;;;;;;;6173127;23;20195;-86
2022/05/28 01:48:07;;;;;;;4.10;2.25;;;;;;;;;;6178248;23;20192;-87
2022/05/28 01:51:13;;;;;;;3.40;2.00;;;;;;;;;;6173210;23;20180;-86
2022/05/28 01:54:19;;;;;;;5.97;2.13;;;;;;;;;;6174556;23;20183;-87
2022/05/28 01:57:25;;;;;;;4.03;1.80;;;;;;;;;;6173681;23;20171;-86
2022/05/28 02:00:31;;;;;;;5.75;2.00;;;;;;;;;;6173472;23;20175;-87
2022/05/28 02:03:38;;;;;;;7.10;2.20;;;;;;;;;;6191399;23;20180;-87
2022/05/28 02:06:43;;;;;;;3.92;2.00;;;;;;;;;;6191531;23;20215;-87
2022/05/28 02:09:51;;;;;;;2.70;1.90;;;;;;;;;;6173554;23;20180;-87
2022/05/28 02:13:02;;;;;;;1.95;1.60;;;;;;;;;;6173375;23;20175;-86
2022/05/28 02:16:12;;;;;;;3.65;2.15;;;;;;;;;;6173400;23;20179;-87
2022/05/28 02:19:22;;;;;;;5.18;2.05;;;;;;;;;;6173475;23;20183;-87
2022/05/28 02:22:36;;;;;;;3.47;2.00;;;;;;;;;;6173795;23;20168;-87
2022/05/28 02:25:44;;;;;;;3.53;1.90;;;;;;;;;;6173516;23;20195;-87
2022/05/28 02:28:50;;;;;;;5.88;1.98;;;;;;;;;;6174243;23;20227;-87
2022/05/28 02:31:57;;;;;;;3.03;2.05;;;;;;;;;;6174641;23;20250;-86
2022/05/28 02:35:05;;;;;;;4.68;1.90;;;;;;;;;;6175149;23;20248;-87
2022/05/28 02:38:10;;;;;;;4.80;2.20;;;;;;;;;;6174340;23;20167;-87
2022/05/28 02:41:16;;;;;;;6.80;1.98;;;;;;;;;;6191944;23;20225;-85
2022/05/28 02:44:20;;;;;;;3.58;2.10;;;;;;;;;;6173346;23;20203;-87
2022/05/28 02:47:27;;;;;;;4.82;1.92;;;;;;;;;;6173412;23;20199;-86
2022/05/28 02:50:32;;;;;;;4.43;2.28;;;;;;;;;;6172845;23;20172;-86
2022/05/28 02:53:37;;;;;;;4.72;2.20;;;;;;;;;;6173260;23;20183;-86
2022/05/28 02:56:42;;;;;;;3.80;2.05;;;;;;;;;;6172670;23;20171;-85
2022/05/28 02:59:48;;;;;;;7.38;2.22;;;;;;;;;;6172633;23;20198;-85
2022/05/28 03:02:54;;;;;;;6.22;2.00;;;;;;;;;;6190359;23;20251;-86
2022/05/28 03:05:59;;;;;;;5.47;2.60;;;;;;;;;;6172016;23;20202;-86
2022/05/28 03:09:05;;;;;;;7.43;1.90;;;;;;;;;;6171988;23;20248;-85
2022/05/28 03:12:11;;;;;;;7.32;2.35;;;;;;;;;;6172396;23;20168;-86
2022/05/28 03:15:16;;;;;;;5.25;1.80;;;;;;;;;;6171634;23;20580;-86
2022/05/28 03:18:23;;;;;;;6.88;2.50;;;;;;;;;;6172487;23;20218;-85
2022/05/28 03:21:28;;;;;;;6.82;1.85;;;;;;;;;;6171984;23;20171;-85
2022/05/28 03:24:32;;;;;;;5.25;2.15;;;;;;;;;;6172034;23;20264;-86
2022/05/28 03:27:38;;;;;;;5.57;2.10;;;;;;;;;;6174028;23;20267;-86
2022/05/28 03:30:43;;;;;;;6.28;1.60;;;;;;;;;;6174344;23;20280;-85
2022/05/28 03:33:50;;;;;;;3.47;1.67;;;;;;;;;;6172427;23;20588;-86
2022/05/28 03:36:55;;;;;;;6.47;1.73;;;;;;;;;;6171735;23;20504;-85
2022/05/28 03:40:00;;;;;;;7.07;1.92;;;;;;;;;;6171238;23;20176;-86
2022/05/28 03:43:06;;;;;;;13.93;2.10;;;;;;;;;;6171706;23;20246;-86
2022/05/28 03:46:20;;;;;;;5.07;1.80;;;;;;;;;;6171462;23;20175;-86
2022/05/28 03:49:28;;;;;;;4.80;1.83;;;;;;;;;;6171759;23;20173;-85
2022/05/28 03:52:33;;;;;;;4.88;1.88;;;;;;;;;;6172238;23;20219;-86
2022/05/28 03:55:39;;;;;;;5.45;2.03;;;;;;;;;;6171254;23;20184;-85
2022/05/28 03:58:43;;;;;;;11.05;1.83;;;;;;;;;;6172081;23;20584;-85
2022/05/28 04:01:49;;;;;;;3.08;1.80;;;;;;;;;;6170979;23;20199;-85
2022/05/28 04:04:55;;;;;;;7.10;2.30;;;;;;;;;;6171953;23;20230;-86
2022/05/28 04:08:00;;;;;;;3.50;1.95;;;;;;;;;;6172687;23;20270;-86
2022/05/28 04:11:06;;;;;;;4.68;2.00;;;;;;;;;;6173866;23;20172;-87
2022/05/28 04:14:11;;;;;;;5.63;1.88;;;;;;;;;;6173689;23;20191;-85
2022/05/28 04:17:16;;;;;;;5.90;1.83;;;;;;;;;;6173151;23;20195;-86
2022/05/28 04:20:24;;;;;;;8.95;2.10;;;;;;;;;;6177021;23;20203;-86
2022/05/28 04:23:29;;;;;;;7.15;1.90;;;;;;;;;;6185794;23;20252;-86
2022/05/28 04:26:33;;;;;;;6.82;1.95;;;;;;;;;;6201287;23;20236;-86
2022/05/28 04:29:38;;;;;;;10.55;2.22;;;;;;;;;;6179978;23;20174;-86
2022/05/28 04:32:44;;;;;;;7.68;2.30;;;;;;;;;;6185837;23;20406;-85
2022/05/28 04:35:50;;;;;;;8.40;2.22;;;;;;;;;;6202401;23;20528;-86
2022/05/28 04:38:56;;;;;;;5.85;2.00;;;;;;;;;;6180197;23;20167;-86
2022/05/28 04:42:01;;;;;;;10.07;2.30;;;;;;;;;;6196688;23;20369;-84
2022/05/28 04:45:06;;;;;;;7.13;2.10;;;;;;;;;;6200100;23;20180;-83
2022/05/28 04:48:11;;;;;;;8.90;2.00;;;;;;;;;;6189495;23;20199;-86
2022/05/28 04:51:18;;;;;;;9.77;2.25;;;;;;;;;;6186508;23;20175;-86
2022/05/28 04:54:23;;;;;;;8.80;2.05;;;;;;;;;;6181809;23;20260;-86
2022/05/28 04:57:28;;;;;;;7.18;2.15;;;;;;;;;;6177855;23;20470;-86
2022/05/28 05:00:34;;;;;;;7.38;1.92;;;;;;;;;;6178779;23;20176;-86
2022/05/28 05:03:39;;;;;;;6.82;2.00;;;;;;;;;;6179176;23;20176;-86
2022/05/28 05:06:46;;;;;;;6.28;1.92;;;;;;;;;;6193117;23;20175;-86
2022/05/28 05:09:51;;;;;;;5.70;2.05;;;;;;;;;;6177403;23;20163;-86
2022/05/28 05:12:56;;;;;;;10.40;2.40;;;;;;;;;;6178680;23;20180;-86
2022/05/28 05:16:01;;;;;;;8.27;2.00;;;;;;;;;;6176552;23;20179;-87
2022/05/28 05:19:07;;;;;;;9.38;2.13;;;;;;;;;;6176847;23;20171;-87
2022/05/28 05:22:14;;;;;;;7.28;2.25;;;;;;;;;;6176691;23;20171;-85
2022/05/28 05:25:19;;;;;;;8.35;2.30;;;;;;;;;;6175508;23;20194;-86
2022/05/28 05:28:24;;;;;;;9.52;2.42;;;;;;;;;;6174276;23;20285;-86
2022/05/28 05:31:29;;;;;;;3.65;1.77;;;;;;;;;;6175208;23;20445;-86
2022/05/28 05:34:34;;;;;;;6.93;2.10;;;;;;;;;;6176538;23;20172;-86
2022/05/28 05:37:41;;;;;;;5.03;1.98;;;;;;;;;;6176179;23;20286;-86
2022/05/28 05:40:47;;;;;;;5.47;2.20;;;;;;;;;;6176238;23;20213;-86
2022/05/28 05:43:52;;;;;;;8.05;2.60;;;;;;;;;;6176354;23;20291;-86
2022/05/28 05:46:57;;;;;;;7.78;2.40;;;;;;;;;;6176938;23;20175;-86
2022/05/28 05:50:02;;;;;;;8.93;2.22;;;;;;;;;;6176121;23;20171;-86
2022/05/28 05:53:09;;;;;;;9.75;2.70;;;;;;;;;;6177128;23;20176;-87
2022/05/28 05:56:14;;;;;;;7.38;2.28;;;;;;;;;;6176814;23;20724;-86
2022/05/28 05:59:20;;;;;;;14.30;2.42;;;;;;;;;;6175734;23;20268;-87
2022/05/28 06:02:25;;;;;;;10.05;2.45;;;;;;;;;;6177376;23;20302;-86
2022/05/28 06:05:31;;;;;;;6.18;1.90;;;;;;;;;;6174839;23;20191;-86
2022/05/28 06:08:37;;;;;;;7.53;2.03;;;;;;;;;;6175946;23;20200;-86
2022/05/28 06:11:43;;;;;;;11.63;2.30;;;;;;;;;;6176309;23;20175;-86
2022/05/28 06:14:49;;;;;;;5.10;1.90;;;;;;;;;;6176020;23;20243;-87
2022/05/28 06:17:54;;;;;;;6.25;2.15;;;;;;;;;;6176826;23;20528;-86
2022/05/28 06:21:00;;;;;;;12.18;2.42;;;;;;;;;;6177669;23;20283;-87
2022/05/28 06:24:08;;;;;;;11.95;2.58;;;;;;;;;;6178866;23;20191;-86
2022/05/28 06:27:16;;;;;;;9.32;2.50;;;;;;;;;;6177752;23;20411;-85
2022/05/28 06:30:22;;;;;;;14.70;2.20;;;;;;;;;;6193420;23;20191;-86
2022/05/28 06:33:27;;;;;;;6.55;2.10;;;;;;;;;;6186156;23;20191;-86
2022/05/28 06:36:32;;;;;;;8.70;2.30;;;;;;;;;;6190177;23;20199;-85
2022/05/28 06:39:39;;;;;;;7.88;1.88;;;;;;;;;;6189990;23;20220;-85
2022/05/28 06:42:46;;;;;;;9.48;2.30;;;;;;;;;;6208879;23;20171;-86
2022/05/28 06:45:52;;;;;;;9.75;2.17;;;;;;;;;;6173645;23;20224;-85
2022/05/28 06:48:57;;;;;;;12.00;1.88;;;;;;;;;;6206202;23;20308;-85
2022/05/28 06:52:02;;;;;;;8.25;2.15;;;;;;;;;;6184093;23;20172;-85
2022/05/28 06:55:10;;;;;;;10.60;1.92;;;;;;;;;;6189153;23;20172;-85
2022/05/28 06:58:16;;;;;;;12.02;1.90;;;;;;;;;;6188823;23;20253;-85
2022/05/28 07:01:21;;;;;;;9.75;1.80;;;;;;;;;;6174034;23;20506;-84
2022/05/28 07:04:27;;;;;;;7.25;1.70;;;;;;;;;;6175419;23;20238;-86
2022/05/28 07:07:32;;;;;;;9.25;1.73;;;;;;;;;;6175723;23;20295;-86
2022/05/28 07:10:42;;;;;;;8.50;1.88;;;;;;;;;;6176229;23;20188;-87
2022/05/28 07:13:47;;;;;;;10.25;2.00;;;;;;;;;;6176888;23;20179;-85
2022/05/28 07:16:52;;;;;;;8.25;1.98;;;;;;;;;;6176312;23;20409;-85
2022/05/28 07:19:57;;;;;;;9.13;1.65;;;;;;;;;;6174402;23;20242;-85
2022/05/28 07:23:10;;;;;;;10.32;1.70;;;;;;;;;;6177065;23;20179;-86
2022/05/28 07:26:18;;;;;;;7.65;1.65;;;;;;;;;;6193689;23;20168;-86
2022/05/28 07:29:23;;;;;;;7.25;1.50;;;;;;;;;;6178289;23;20219;-84
2022/05/28 07:32:30;;;;;;;12.95;1.42;;;;;;;;;;6176043;23;20183;-86
2022/05/28 07:35:39;;;;;;;11.95;2.65;;;;;;;;;;6178749;23;20179;-88
2022/05/28 07:38:44;;;;;;;7.25;1.70;;;;;;;;;;6184394;23;20192;-88
2022/05/28 07:41:51;;;;;;;5.95;1.48;;;;;;;;;;6178246;23;20243;-87
2022/05/28 07:44:57;;;;;;;7.85;1.85;;;;;;;;;;6176575;23;20175;-88
2022/05/28 07:48:03;;;;;;;7.55;1.50;;;;;;;;;;6177733;23;20276;-88
2022/05/28 07:51:08;;;;;;;12.45;1.67;;;;;;;;;;6177070;23;20167;-87
2022/05/28 07:54:16;;;;;;;7.68;1.42;;;;;;;;;;6177583;23;20603;-88
2022/05/28 07:57:23;;;;;;;6.60;1.30;;;;;;;;;;6177719;23;20179;-87
2022/05/28 08:00:29;;;;;;;5.32;1.10;;;;;;;;;;6177042;23;20271;-86
2022/05/28 08:03:35;;;;;;;5.80;1.15;;;;;;;;;;6178983;23;20231;-86
2022/05/28 08:06:41;;;;;;;7.07;1.50;;;;;;;;;;6178502;23;20180;-86
2022/05/28 08:09:46;;;;;;;5.53;1.30;;;;;;;;;;6178436;23;20200;-86
2022/05/28 08:12:53;;;;;;;5.82;1.70;;;;;;;;;;6177625;23;20212;-85
2022/05/28 08:16:01;;;;;;;5.95;1.27;;;;;;;;;;6179095;23;20175;-86
2022/05/28 08:19:07;;;;;;;7.05;1.20;;;;;;;;;;6180138;23;20168;-87
2022/05/28 08:25:35;;;;;;;8.57;1.25;;;;;;;;;;6176486;23;20212;-85
2022/05/28 08:28:42;;;;;;;3.80;1.25;;;;;;;;;;6184048;23;20195;-86
2022/05/28 08:31:48;;;;;;;7.57;1.38;;;;;;;;;;6182897;23;20524;-86
2022/05/28 08:34:54;;;;;;;8.05;1.55;;;;;;;;;;6181594;23;20588;-86
2022/05/28 08:38:04;;;;;;;5.45;1.25;;;;;;;;;;6200350;23;20224;-86
2022/05/28 08:41:12;;;;;;;8.35;1.30;;;;;;;;;;6184208;23;20175;-86
2022/05/28 08:44:21;;;;;;;8.48;1.40;;;;;;;;;;6182270;23;20491;-86
2022/05/28 08:47:28;;;;;;;4.30;1.10;;;;;;;;;;6182112;23;20182;-86
2022/05/28 08:50:50;;;;;;;6.65;1.35;;;;;;;;;;6184078;23;20199;-87
2022/05/28 08:54:00;;;;;;;5.15;1.30;;;;;;;;;;6185270;23;20179;-85
2022/05/28 08:57:22;;;;;;;4.43;1.00;;;;;;;;;;6186501;23;20175;-83
2022/05/28 09:00:35;;;;;;;6.78;1.10;;;;;;;;;;6192838;23;20208;-85
2022/05/28 09:03:44;;;;;;;4.78;1.20;;;;;;;;;;6209787;23;20159;-85
2022/05/28 09:06:53;;;;;;;5.00;1.10;;;;;;;;;;6184619;23;20211;-86
2022/05/28 09:09:59;;;;;;;4.38;1.05;;;;;;;;;;6191874;23;20187;-86
2022/05/28 09:13:07;;;;;;;3.38;1.08;;;;;;;;;;6191178;23;20460;-85
2022/05/28 09:16:19;;;;;;;3.95;0.93;;;;;;;;;;6192532;23;20249;-85
2022/05/28 09:19:29;;;;;;;3.55;1.10;;;;;;;;;;6192543;23;20235;-85
2022/05/28 09:22:34;;;;;;;6.10;1.13;;;;;;;;;;6192677;23;20184;-85
2022/05/28 09:25:43;;;;;;;4.20;1.05;;;;;;;;;;6192666;23;20192;-86
2022/05/28 09:28:59;;;;;;;3.80;1.00;;;;;;;;;;6192235;23;20243;-85
2022/05/28 09:32:10;;;;;;;5.30;1.20;;;;;;;;;;6186924;23;20176;-86
2022/05/28 09:35:18;;;;;;;3.03;0.90;;;;;;;;;;6186472;23;20177;-85
2022/05/28 09:38:29;;;;;;;3.92;1.02;;;;;;;;;;6187455;23;20192;-85
2022/05/28 09:41:42;;;;;;;4.75;1.23;;;;;;;;;;6183886;23;20184;-86
2022/05/28 09:45:08;;;;;;;1.85;0.70;;;;;;;;;;6187197;23;20167;-85
2022/05/28 09:48:24;;;;;;;3.65;0.70;;;;;;;;;;6186728;23;20179;-86
2022/05/28 09:51:36;;;;;;;3.78;1.10;;;;;;;;;;6187761;23;20159;-87
2022/05/28 09:54:47;;;;;;;4.63;1.00;;;;;;;;;;6188100;23;20738;-88
2022/05/28 09:57:54;;;;;;;5.50;1.10;;;;;;;;;;6188104;23;20176;-84
2022/05/28 10:01:08;;;;;;;4.85;1.20;;;;;;;;;;6192483;23;20217;-86
2022/05/28 10:04:30;;;;;;;6.13;1.27;;;;;;;;;;6192832;23;20225;-85
2022/05/28 10:07:37;;;;;;;4.25;0.88;;;;;;;;;;6193564;23;20175;-85
2022/05/28 10:11:00;;;;;;;5.32;1.10;;;;;;;;;;6195326;23;20202;-86
2022/05/28 10:14:30;;;;;;;2.53;1.00;;;;;;;;;;6192029;23;20225;-87
2022/05/28 10:17:36;;;;;;;4.50;1.15;;;;;;;;;;6195265;23;20228;-85
2022/05/28 10:20:58;;;;;;;4.55;0.90;;;;;;;;;;6191309;23;20215;-88
2022/05/28 10:24:05;;;;;;;6.50;1.15;;;;;;;;;;6188634;23;20191;-85
2022/05/28 10:27:24;;;;;;;3.03;0.90;;;;;;;;;;6190194;23;20175;-84
2022/05/28 10:30:33;;;;;;;2.42;0.90;;;;;;;;;;6191328;23;20199;-87
2022/05/28 10:33:43;;;;;;;7.88;1.13;;;;;;;;;;6191760;23;20159;-85
2022/05/28 10:36:50;;;;;;;2.67;0.88;;;;;;;;;;6190190;23;20184;-87
2022/05/28 10:40:03;;;;;;;4.60;0.73;;;;;;;;;;6188948;23;20163;-86
2022/05/28 10:43:17;;;;;;;2.10;0.70;;;;;;;;;;6189665;23;20221;-87
2022/05/28 10:46:30;;;;;;;6.55;1.15;;;;;;;;;;6190585;23;20200;-86
2022/05/28 10:49:44;;;;;;;3.60;0.80;;;;;;;;;;6190163;23;20240;-86
2022/05/28 10:53:07;;;;;;;4.03;1.00;;;;;;;;;;6190873;23;20399;-88
2022/05/28 10:56:28;;;;;;;2.88;0.75;;;;;;;;;;6193480;23;20254;-86
2022/05/28 10:59:45;;;;;;;4.72;0.80;;;;;;;;;;6213010;23;20152;-88
2022/05/28 11:07:04;;;;;;;1.42;0.80;;;;;;;;;;6193268;23;20187;-87
